Time;durP1;ratioP1;P1;durP2;ratioP2;P2;SDS_P1;SDS_P2;PMS_P1;PMS_P2;Temp;Humidity;BMP_temperature;BMP_pressure;BME280_temperature;BME280_humidity;BME280_pressure;Samples;Min_cycle;Max_cycle;Signal;HPM_P1;HPM_P2
2023/09/17 00:01:04;;;;;;;5.88;3.70;;;21.10;99.90;;;;;;4977866;28;20030;-77
2023/09/17 00:03:30;;;;;;;6.05;3.63;;;21.10;99.90;;;;;;4975852;28;20110;-78
2023/09/17 00:05:56;;;;;;;5.68;4.00;;;21.00;99.90;;;;;;4987239;28;20063;-76
2023/09/17 00:08:28;;;;;;;4.95;3.67;;;21.00;99.90;;;;;;4989819;28;20058;-77
2023/09/17 00:10:54;;;;;;;6.90;3.80;;;20.90;99.90;;;;;;4978899;28;20503;-79
2023/09/17 00:13:20;;;;;;;5.68;4.15;;;20.90;99.90;;;;;;4974367;28;20110;-79
2023/09/17 00:15:46;;;;;;;5.90;4.10;;;20.80;99.90;;;;;;4987944;28;20018;-79
2023/09/17 00:18:17;;;;;;;7.18;4.57;;;20.80;99.90;;;;;;4988039;28;20022;-78
2023/09/17 00:20:43;;;;;;;4.95;3.58;;;20.70;99.90;;;;;;4987482;28;20014;-80
2023/09/17 00:23:09;;;;;;;5.30;4.28;;;20.70;99.90;;;;;;4973839;28;20093;-80
2023/09/17 00:25:35;;;;;;;4.85;3.83;;;20.60;99.90;;;;;;4982380;28;20051;-80
2023/09/17 00:28:04;;;;;;;5.68;3.67;;;20.60;99.90;;;;;;4975948;28;20046;-80
2023/09/17 00:30:29;;;;;;;5.85;3.97;;;20.60;99.90;;;;;;4985034;28;20054;-80
2023/09/17 00:32:55;;;;;;;5.75;3.63;;;20.50;99.90;;;;;;4987892;28;20019;-80
2023/09/17 00:35:21;;;;;;;4.90;4.00;;;20.50;99.90;;;;;;4989905;28;20033;-79
2023/09/17 00:37:46;;;;;;;6.03;3.65;;;20.40;99.90;;;;;;4970386;28;20261;-80
2023/09/17 00:40:12;;;;;;;7.78;3.65;;;20.40;99.90;;;;;;4972989;28;20030;-79
2023/09/17 00:42:40;;;;;;;5.38;4.10;;;20.40;99.90;;;;;;4972979;28;20493;-79
2023/09/17 00:45:11;;;;;;;5.35;3.42;;;20.30;99.90;;;;;;4973216;28;20030;-80
2023/09/17 00:47:37;;;;;;;4.55;3.60;;;20.30;99.90;;;;;;4971264;28;20042;-79
2023/09/17 00:50:12;;;;;;;4.30;3.58;;;20.30;99.90;;;;;;4970932;28;20031;-81
2023/09/17 00:52:41;;;;;;;7.18;4.55;;;20.20;99.90;;;;;;4988435;28;20035;-79
2023/09/17 00:55:16;;;;;;;7.00;3.80;;;20.20;99.90;;;;;;4971849;28;20470;-79
2023/09/17 00:57:45;;;;;;;7.25;3.75;;;20.20;99.90;;;;;;4999966;23;20063;-75
2023/09/17 01:00:11;;;;;;;7.20;3.75;;;20.10;99.90;;;;;;4945541;28;20125;-75
2023/09/17 01:02:50;;;;;;;6.22;3.47;;;20.10;99.90;;;;;;4952263;28;20018;-75
2023/09/17 01:05:16;;;;;;;5.30;4.18;;;20.10;99.90;;;;;;4947231;28;20047;-75
2023/09/17 01:08:00;;;;;;;9.00;3.90;;;20.00;99.90;;;;;;4950354;28;20163;-75
2023/09/17 01:10:26;;;;;;;4.82;3.75;;;19.90;99.90;;;;;;4950558;28;20026;-73
2023/09/17 01:13:02;;;;;;;5.05;3.03;;;19.90;99.90;;;;;;4948646;28;20978;-75
2023/09/17 01:15:31;;;;;;;8.82;3.50;;;19.80;99.90;;;;;;4950130;28;20027;-76
2023/09/17 01:18:05;;;;;;;5.60;3.70;;;19.80;99.90;;;;;;4951472;28;20102;-75
2023/09/17 01:20:50;;;;;;;5.30;3.55;;;19.80;99.90;;;;;;4948561;28;20097;-74
2023/09/17 01:23:28;;;;;;;7.35;3.80;;;19.80;99.90;;;;;;4948646;28;20030;-75
2023/09/17 01:26:01;;;;;;;5.15;3.40;;;19.70;99.90;;;;;;4949739;28;20054;-73
2023/09/17 01:28:33;;;;;;;3.35;3.05;;;19.80;99.90;;;;;;4949266;28;20086;-75
2023/09/17 01:31:00;;;;;;;6.55;3.70;;;19.70;99.90;;;;;;4947450;28;20047;-77
2023/09/17 01:33:29;;;;;;;5.30;4.13;;;19.70;99.90;;;;;;4950101;28;20011;-76
2023/09/17 01:36:18;;;;;;;5.95;4.20;;;19.70;99.90;;;;;;4949980;28;20019;-75
2023/09/17 01:38:50;;;;;;;4.72;3.67;;;19.70;99.90;;;;;;4950279;28;20490;-77
2023/09/17 01:41:18;;;;;;;6.18;4.03;;;19.70;99.90;;;;;;4950264;28;20078;-76
2023/09/17 01:43:53;;;;;;;5.80;3.67;;;19.60;99.90;;;;;;4963797;28;20035;-76
2023/09/17 01:46:20;;;;;;;3.60;3.10;;;19.60;99.90;;;;;;4950940;28;20034;-75
2023/09/17 01:48:53;;;;;;;5.53;3.55;;;19.60;99.90;;;;;;4951918;28;20030;-76
2023/09/17 01:51:20;;;;;;;5.18;3.95;;;19.60;99.90;;;;;;4949788;28;20039;-76
2023/09/17 01:53:49;;;;;;;5.20;3.70;;;19.60;99.90;;;;;;4949758;28;20478;-76
2023/09/17 01:56:14;;;;;;;7.95;3.80;;;19.60;99.90;;;;;;4949868;28;20027;-75
2023/09/17 01:58:40;;;;;;;4.78;3.78;;;19.50;99.90;;;;;;4948949;28;20192;-76
2023/09/17 02:01:09;;;;;;;4.72;3.47;;;19.50;99.90;;;;;;4947810;28;20104;-75
2023/09/17 02:03:40;;;;;;;3.95;3.03;;;19.50;99.90;;;;;;4946769;28;20027;-73
2023/09/17 02:06:08;;;;;;;4.85;3.60;;;19.50;99.90;;;;;;4949446;28;20122;-75
2023/09/17 02:08:37;;;;;;;5.78;3.45;;;19.50;99.90;;;;;;4950026;28;20030;-75
2023/09/17 02:11:05;;;;;;;3.83;3.33;;;19.50;99.90;;;;;;4952503;28;20022;-75
2023/09/17 02:13:34;;;;;;;6.25;3.42;;;19.50;99.90;;;;;;4951981;28;20027;-75
2023/09/17 02:15:59;;;;;;;5.13;3.50;;;19.50;99.90;;;;;;4953403;28;20370;-75
2023/09/17 02:18:25;;;;;;;6.28;3.83;;;19.50;99.90;;;;;;4951496;28;20106;-75
2023/09/17 02:20:55;;;;;;;5.22;3.90;;;19.50;99.90;;;;;;4956159;28;20422;-75
2023/09/17 02:23:24;;;;;;;6.40;3.47;;;19.50;99.90;;;;;;4953574;28;20031;-75
2023/09/17 02:25:49;;;;;;;4.15;3.17;;;19.50;99.90;;;;;;4957648;28;20030;-75
2023/09/17 02:28:15;;;;;;;4.50;3.70;;;19.50;99.90;;;;;;4952287;28;20500;-74
2023/09/17 02:30:47;;;;;;;5.28;3.35;;;19.50;99.90;;;;;;4968305;28;20031;-75
2023/09/17 02:33:16;;;;;;;5.28;3.97;;;19.40;99.90;;;;;;4954019;28;20103;-73
2023/09/17 02:35:41;;;;;;;5.20;3.60;;;19.40;99.90;;;;;;4953276;28;20023;-77
2023/09/17 02:38:07;;;;;;;4.57;3.63;;;19.40;99.90;;;;;;4954021;28;20032;-75
2023/09/17 02:40:38;;;;;;;4.10;3.35;;;19.40;99.90;;;;;;4953637;28;20460;-75
2023/09/17 02:43:10;;;;;;;5.88;3.85;;;19.40;99.90;;;;;;4951521;28;20024;-72
2023/09/17 02:45:38;;;;;;;5.03;3.47;;;19.30;99.90;;;;;;4953431;28;20055;-75
2023/09/17 02:48:07;;;;;;;4.75;3.30;;;19.30;99.90;;;;;;4953983;28;20027;-75
2023/09/17 02:50:32;;;;;;;4.40;3.53;;;19.30;99.90;;;;;;4954820;28;20023;-75
2023/09/17 02:53:04;;;;;;;4.45;3.45;;;19.20;99.90;;;;;;4953543;28;20035;-75
2023/09/17 02:55:39;;;;;;;8.07;3.47;;;19.20;99.90;;;;;;4954409;28;20027;-75
2023/09/17 02:58:05;;;;;;;6.07;3.47;;;19.20;99.90;;;;;;4951069;28;20083;-76
2023/09/17 03:00:34;;;;;;;4.55;3.65;;;19.20;99.90;;;;;;4952626;28;20043;-76
2023/09/17 03:03:00;;;;;;;5.90;3.90;;;19.10;99.90;;;;;;4952688;28;20019;-76
2023/09/17 03:05:26;;;;;;;7.40;3.55;;;19.10;99.90;;;;;;4952137;28;20028;-76
2023/09/17 03:07:56;;;;;;;6.60;3.83;;;19.10;99.90;;;;;;4955329;28;20042;-76
2023/09/17 03:10:22;;;;;;;4.72;3.55;;;19.00;99.90;;;;;;4952666;28;20058;-75
2023/09/17 03:12:49;;;;;;;4.35;3.10;;;19.00;99.90;;;;;;4954275;28;20015;-76
2023/09/17 03:15:15;;;;;;;4.40;3.25;;;19.00;99.90;;;;;;4951331;28;20106;-75
2023/09/17 03:17:43;;;;;;;5.63;3.72;;;19.00;99.90;;;;;;4952303;28;20122;-76
2023/09/17 03:20:17;;;;;;;4.45;3.70;;;19.00;99.90;;;;;;4952617;28;20055;-76
2023/09/17 03:22:46;;;;;;;7.45;3.53;;;18.90;99.90;;;;;;4951029;28;20023;-76
2023/09/17 03:25:12;;;;;;;5.85;3.55;;;18.90;99.90;;;;;;4952879;28;20039;-74
2023/09/17 03:27:45;;;;;;;4.97;3.42;;;18.90;99.90;;;;;;4950801;28;20501;-76
2023/09/17 03:30:16;;;;;;;5.03;3.63;;;18.90;99.90;;;;;;4954671;28;20031;-76
2023/09/17 03:32:45;;;;;;;3.92;2.97;;;18.90;99.90;;;;;;4953474;28;20015;-77
2023/09/17 03:35:11;;;;;;;4.75;3.53;;;18.80;99.90;;;;;;4952934;28;20023;-75
2023/09/17 03:37:37;;;;;;;5.97;3.20;;;18.80;99.90;;;;;;4952204;28;20390;-76
2023/09/17 03:40:11;;;;;;;6.80;3.47;;;18.80;99.90;;;;;;4968954;28;20108;-76
2023/09/17 03:42:37;;;;;;;5.25;3.80;;;18.80;99.90;;;;;;4949944;28;20091;-76
2023/09/17 03:45:09;;;;;;;6.13;4.05;;;18.80;99.90;;;;;;4967367;28;20027;-76
2023/09/17 03:47:47;;;;;;;4.65;3.38;;;18.80;99.90;;;;;;4948062;28;20019;-76
2023/09/17 03:50:15;;;;;;;5.90;3.03;;;18.80;99.90;;;;;;4951019;28;20031;-76
2023/09/17 03:52:45;;;;;;;5.25;3.53;;;18.80;99.90;;;;;;4965522;28;20481;-76
2023/09/17 03:55:12;;;;;;;4.50;3.05;;;18.80;99.90;;;;;;4953710;28;20443;-75
2023/09/17 03:57:38;;;;;;;6.05;4.20;;;18.70;99.90;;;;;;4951578;28;20489;-74
2023/09/17 04:00:15;;;;;;;5.82;3.85;;;18.70;99.90;;;;;;4949360;28;20486;-76
2023/09/17 04:02:52;;;;;;;5.57;3.35;;;18.70;99.90;;;;;;4951046;28;20426;-76
2023/09/17 04:05:28;;;;;;;4.80;3.50;;;18.70;99.90;;;;;;4951818;28;20027;-76
2023/09/17 04:07:57;;;;;;;10.27;3.72;;;18.70;99.90;;;;;;4950826;28;20043;-76
2023/09/17 04:10:22;;;;;;;5.68;3.35;;;18.70;99.90;;;;;;4950367;28;20557;-76
2023/09/17 04:13:06;;;;;;;4.93;3.53;;;18.80;99.90;;;;;;4949798;28;20114;-76
2023/09/17 04:15:32;;;;;;;4.20;3.20;;;18.80;99.90;;;;;;4947622;28;20031;-75
2023/09/17 04:17:58;;;;;;;5.68;3.13;;;18.70;99.90;;;;;;4940082;28;20035;-76
2023/09/17 04:20:23;;;;;;;4.28;3.10;;;18.70;99.90;;;;;;4951376;28;20486;-76
2023/09/17 04:23:07;;;;;;;6.18;2.80;;;18.70;99.90;;;;;;4947758;28;20035;-75
2023/09/17 04:25:34;;;;;;;3.92;3.40;;;18.70;99.90;;;;;;4956053;28;20027;-76
2023/09/17 04:28:02;;;;;;;5.90;3.15;;;18.70;99.90;;;;;;4952043;28;20106;-76
2023/09/17 04:30:30;;;;;;;3.97;3.05;;;18.70;99.90;;;;;;4954774;28;20110;-75
2023/09/17 04:32:56;;;;;;;4.28;3.35;;;18.70;99.90;;;;;;4950927;28;20501;-76
2023/09/17 04:35:25;;;;;;;4.50;3.03;;;18.70;99.90;;;;;;4950066;28;20035;-76
2023/09/17 04:37:53;;;;;;;3.67;3.05;;;18.70;99.90;;;;;;4950225;28;20043;-76
2023/09/17 04:40:25;;;;;;;3.85;3.45;;;18.70;99.90;;;;;;4948026;28;20027;-77
2023/09/17 04:42:54;;;;;;;4.85;3.97;;;18.70;99.90;;;;;;4951007;28;20027;-76
2023/09/17 04:45:33;;;;;;;5.18;4.38;;;18.70;99.90;;;;;;4950135;28;20031;-77
2023/09/17 04:48:02;;;;;;;6.15;3.90;;;18.70;99.90;;;;;;4966185;28;20070;-76
2023/09/17 04:50:31;;;;;;;8.05;4.53;;;18.70;99.90;;;;;;4951264;28;20035;-76
2023/09/17 04:52:57;;;;;;;5.05;4.28;;;18.70;99.90;;;;;;4967125;28;20027;-76
2023/09/17 04:55:22;;;;;;;7.65;4.15;;;18.60;99.90;;;;;;4962288;28;20494;-76
2023/09/17 04:58:14;;;;;;;6.82;4.43;;;18.60;99.90;;;;;;4950836;28;20059;-76
2023/09/17 05:00:44;;;;;;;7.25;4.60;;;18.60;99.90;;;;;;4949568;28;20031;-76
2023/09/17 05:03:13;;;;;;;6.07;4.78;;;18.60;99.90;;;;;;4951838;28;20106;-76
2023/09/17 05:05:46;;;;;;;5.88;4.10;;;18.50;99.90;;;;;;4951556;28;20034;-76
2023/09/17 05:08:13;;;;;;;5.47;4.43;;;18.50;99.90;;;;;;4952957;28;20039;-76
2023/09/17 05:10:41;;;;;;;5.50;4.50;;;18.50;99.90;;;;;;4965769;28;20031;-75
2023/09/17 05:13:07;;;;;;;5.43;4.15;;;18.50;99.90;;;;;;4950259;28;20110;-74
2023/09/17 05:15:34;;;;;;;6.13;4.38;;;18.50;99.90;;;;;;4948264;28;20115;-76
2023/09/17 05:18:09;;;;;;;7.53;4.60;;;18.50;99.90;;;;;;4942495;28;20135;-76
2023/09/17 05:20:41;;;;;;;5.10;4.60;;;18.50;99.90;;;;;;4946037;28;20066;-77
2023/09/17 05:23:17;;;;;;;6.35;3.63;;;18.50;99.90;;;;;;4942420;28;20038;-76
2023/09/17 05:25:43;;;;;;;4.78;3.90;;;18.50;99.90;;;;;;4949910;28;20458;-76
2023/09/17 05:28:11;;;;;;;6.05;4.05;;;18.50;99.90;;;;;;4950740;28;20016;-76
2023/09/17 05:30:40;;;;;;;4.85;3.83;;;18.50;99.90;;;;;;4948999;28;20020;-76
2023/09/17 05:33:08;;;;;;;5.72;3.55;;;18.50;99.90;;;;;;4949290;28;20019;-75
2023/09/17 05:35:36;;;;;;;6.22;3.70;;;18.50;99.90;;;;;;4949345;28;20035;-75
2023/09/17 05:38:02;;;;;;;4.40;3.53;;;18.60;99.90;;;;;;4949337;28;20031;-76
2023/09/17 05:40:34;;;;;;;4.60;3.28;;;18.60;99.90;;;;;;4966037;28;20175;-76
2023/09/17 05:43:00;;;;;;;6.88;3.90;;;18.60;99.90;;;;;;4966610;28;20027;-76
2023/09/17 05:45:26;;;;;;;4.95;3.30;;;18.60;99.90;;;;;;4950321;28;20418;-76
2023/09/17 05:47:52;;;;;;;5.65;3.47;;;18.60;99.90;;;;;;4949418;28;20078;-77
2023/09/17 05:50:18;;;;;;;8.55;3.70;;;18.70;99.90;;;;;;4954453;28;20051;-76
2023/09/17 05:52:44;;;;;;;5.38;3.83;;;18.70;99.90;;;;;;4955142;28;20034;-75
2023/09/17 05:55:12;;;;;;;5.45;3.72;;;18.70;99.90;;;;;;4953704;28;20031;-73
2023/09/17 05:57:42;;;;;;;4.53;3.50;;;18.80;99.90;;;;;;4953508;28;20035;-76
2023/09/17 06:00:15;;;;;;;5.55;3.85;;;18.80;99.90;;;;;;4952833;28;20059;-76
2023/09/17 06:02:41;;;;;;;5.07;3.73;;;18.80;99.90;;;;;;4952328;28;20031;-75
2023/09/17 06:05:13;;;;;;;4.50;3.50;;;18.80;99.90;;;;;;4969168;28;20276;-76
2023/09/17 06:07:44;;;;;;;4.97;3.78;;;18.80;99.90;;;;;;4952761;28;20095;-74
2023/09/17 06:10:10;;;;;;;5.50;3.47;;;18.90;99.90;;;;;;4954386;28;20027;-76
2023/09/17 06:12:35;;;;;;;5.68;4.18;;;18.90;99.90;;;;;;4950783;28;20057;-75
2023/09/17 06:15:05;;;;;;;7.75;4.28;;;18.90;99.90;;;;;;4953977;28;20504;-76
2023/09/17 06:17:33;;;;;;;7.47;4.55;;;18.90;99.90;;;;;;4955378;28;20023;-76
2023/09/17 06:20:03;;;;;;;7.82;4.85;;;19.00;99.90;;;;;;4954360;28;20105;-76
2023/09/17 06:22:31;;;;;;;6.88;3.75;;;19.00;99.90;;;;;;4970098;28;20505;-76
2023/09/17 06:25:00;;;;;;;5.40;4.28;;;19.10;99.90;;;;;;4955177;28;20027;-76
2023/09/17 06:27:26;;;;;;;7.10;4.25;;;19.10;99.90;;;;;;4954943;28;20502;-76
2023/09/17 06:29:54;;;;;;;5.13;3.50;;;19.10;99.90;;;;;;4952021;28;20027;-76
2023/09/17 06:32:23;;;;;;;6.85;3.83;;;19.20;99.90;;;;;;4966722;28;20022;-75
2023/09/17 06:34:48;;;;;;;4.80;3.30;;;19.30;99.90;;;;;;4956508;28;20027;-75
2023/09/17 06:37:14;;;;;;;3.90;3.35;;;19.30;99.90;;;;;;4953584;28;20030;-76
2023/09/17 06:39:41;;;;;;;6.53;3.72;;;19.30;99.90;;;;;;4951939;28;20368;-76
2023/09/17 06:42:07;;;;;;;5.72;3.55;;;19.40;99.90;;;;;;4954971;28;20041;-76
2023/09/17 06:44:32;;;;;;;5.18;3.15;;;19.40;99.90;;;;;;4955201;28;20091;-76
2023/09/17 06:46:58;;;;;;;4.47;3.10;;;19.50;99.90;;;;;;4954368;28;20035;-76
2023/09/17 06:49:24;;;;;;;5.47;3.70;;;19.50;99.90;;;;;;4952610;28;20095;-75
2023/09/17 06:51:54;;;;;;;6.15;3.28;;;19.60;99.90;;;;;;4952907;28;20027;-77
2023/09/17 06:54:19;;;;;;;5.70;3.78;;;19.70;99.90;;;;;;4954009;28;20027;-76
2023/09/17 06:56:45;;;;;;;5.22;3.90;;;19.70;99.90;;;;;;4969920;28;20377;-74
2023/09/17 06:59:11;;;;;;;6.93;4.22;;;19.80;99.90;;;;;;4957314;23;20098;-77
2023/09/17 07:01:39;;;;;;;5.93;3.88;;;19.80;99.90;;;;;;4933524;29;20034;-77
2023/09/17 07:04:05;;;;;;;5.50;3.70;;;19.90;99.90;;;;;;4936009;29;20390;-75
2023/09/17 07:06:36;;;;;;;4.80;3.70;;;20.00;99.90;;;;;;4933644;29;20036;-76
2023/09/17 07:09:05;;;;;;;4.15;3.00;;;20.10;99.90;;;;;;4935296;29;20034;-76
2023/09/17 07:11:36;;;;;;;4.13;3.10;;;20.20;99.90;;;;;;4932243;29;20032;-76
2023/09/17 07:14:08;;;;;;;5.90;3.20;;;20.30;99.90;;;;;;4947463;28;20364;-76
2023/09/17 07:16:40;;;;;;;2.80;2.25;;;20.30;99.90;;;;;;4931677;29;20034;-76
2023/09/17 07:19:12;;;;;;;7.53;3.42;;;20.40;99.90;;;;;;4934896;29;20023;-76
2023/09/17 07:21:38;;;;;;;5.50;2.60;;;20.50;99.90;;;;;;4931028;29;20043;-75
2023/09/17 07:24:04;;;;;;;4.60;2.75;;;20.60;99.90;;;;;;4934159;29;20032;-76
2023/09/17 07:26:32;;;;;;;5.28;2.50;;;20.70;99.90;;;;;;4933703;29;20040;-77
2023/09/17 07:29:03;;;;;;;5.28;2.63;;;20.80;99.90;;;;;;4934056;29;20023;-75
2023/09/17 07:31:32;;;;;;;4.50;2.83;;;20.90;99.90;;;;;;4930821;29;20115;-75
2023/09/17 07:33:57;;;;;;;5.30;2.53;;;20.90;99.90;;;;;;4935635;29;20036;-76
2023/09/17 07:36:26;;;;;;;4.32;2.58;;;21.00;99.90;;;;;;4936498;29;20031;-76
2023/09/17 07:38:51;;;;;;;6.40;2.90;;;21.00;99.90;;;;;;4935407;29;20054;-76
2023/09/17 07:41:17;;;;;;;4.47;2.58;;;21.10;99.90;;;;;;4948716;28;20023;-76
2023/09/17 07:43:46;;;;;;;6.00;3.05;;;21.10;99.90;;;;;;4934488;29;20110;-75
2023/09/17 07:46:13;;;;;;;3.95;2.28;;;21.10;99.90;;;;;;4927567;29;20039;-76
2023/09/17 07:48:39;;;;;;;4.45;2.53;;;21.20;99.90;;;;;;4933427;29;20427;-76
2023/09/17 07:51:13;;;;;;;6.72;2.50;;;21.20;99.90;;;;;;4934081;29;20047;-76
2023/09/17 07:53:42;;;;;;;4.45;2.40;;;21.30;99.90;;;;;;4932593;29;20020;-76
2023/09/17 07:56:13;;;;;;;3.72;2.45;;;21.30;99.90;;;;;;4948791;28;20059;-76
2023/09/17 07:58:45;;;;;;;5.97;3.38;;;21.30;99.90;;;;;;4948138;28;20063;-76
2023/09/17 08:01:14;;;;;;;5.45;3.05;;;21.40;99.90;;;;;;4932965;29;20499;-76
2023/09/17 08:03:43;;;;;;;4.65;3.58;;;21.40;99.90;;;;;;4946771;28;20027;-76
2023/09/17 08:06:12;;;;;;;4.55;3.50;;;21.40;99.90;;;;;;4949201;28;20107;-75
2023/09/17 08:08:45;;;;;;;5.93;3.70;;;21.40;99.90;;;;;;4947185;28;20100;-75
2023/09/17 08:11:11;;;;;;;5.47;3.83;;;21.40;99.90;;;;;;4946645;28;20082;-75
2023/09/17 08:13:42;;;;;;;6.60;4.47;;;21.50;99.90;;;;;;4933087;29;20028;-76
2023/09/17 08:16:08;;;;;;;5.18;4.10;;;21.50;99.90;;;;;;4930761;29;20051;-75
2023/09/17 08:18:34;;;;;;;7.78;4.68;;;21.50;99.90;;;;;;4933109;29;20059;-78
2023/09/17 08:21:04;;;;;;;5.28;3.92;;;21.50;99.90;;;;;;4933353;29;20444;-76
2023/09/17 08:23:31;;;;;;;5.05;3.55;;;21.60;99.90;;;;;;4934264;29;20545;-75
2023/09/17 08:26:04;;;;;;;11.20;3.80;;;21.70;99.90;;;;;;4932943;29;20103;-76
2023/09/17 08:28:30;;;;;;;6.72;4.18;;;21.80;99.90;;;;;;4933121;29;20043;-76
2023/09/17 08:30:58;;;;;;;4.72;3.35;;;21.90;99.90;;;;;;4932529;29;20558;-76
2023/09/17 08:33:24;;;;;;;5.20;3.72;;;22.00;99.90;;;;;;4929006;29;20032;-76
2023/09/17 08:36:02;;;;;;;7.35;3.67;;;22.10;99.90;;;;;;4932198;29;20376;-76
2023/09/17 08:38:32;;;;;;;5.20;3.22;;;22.20;99.90;;;;;;4931953;29;20091;-76
2023/09/17 08:40:59;;;;;;;6.93;3.63;;;22.40;99.90;;;;;;4936145;29;20023;-77
2023/09/17 08:43:25;;;;;;;7.22;3.90;;;22.50;99.90;;;;;;4947441;28;20027;-76
2023/09/17 08:45:54;;;;;;;5.05;3.65;;;22.60;99.90;;;;;;4933289;29;20019;-76
2023/09/17 08:48:29;;;;;;;4.95;3.33;;;22.80;99.90;;;;;;4935011;28;20376;-75
2023/09/17 08:50:59;;;;;;;5.72;3.03;;;22.90;99.90;;;;;;4932928;29;20161;-76
2023/09/17 08:53:36;;;;;;;7.85;3.55;;;22.90;99.90;;;;;;4933402;29;20038;-76
2023/09/17 08:56:03;;;;;;;5.65;3.40;;;23.00;99.90;;;;;;4928867;29;20016;-76
2023/09/17 08:58:40;;;;;;;4.72;3.60;;;23.10;99.90;;;;;;4933041;28;20043;-76
2023/09/17 09:01:08;;;;;;;4.80;3.25;;;23.20;99.90;;;;;;4937702;29;20264;-76
2023/09/17 09:03:35;;;;;;;5.20;2.88;;;23.20;99.90;;;;;;4932774;29;20089;-76
2023/09/17 09:06:04;;;;;;;4.05;2.55;;;23.30;99.90;;;;;;4934032;29;20030;-76
2023/09/17 09:08:34;;;;;;;4.47;2.75;;;23.40;99.90;;;;;;4933787;29;20071;-76
2023/09/17 09:11:00;;;;;;;7.80;3.03;;;23.50;99.90;;;;;;4939441;29;20812;-79
2023/09/17 09:13:33;;;;;;;9.98;3.55;;;23.60;99.90;;;;;;4937786;29;20016;-76
2023/09/17 09:15:58;;;;;;;12.57;3.80;;;23.60;99.90;;;;;;4934216;29;20102;-75
2023/09/17 09:18:30;;;;;;;7.93;2.75;;;23.80;99.90;;;;;;4932987;29;20028;-75
2023/09/17 09:21:01;;;;;;;4.88;2.83;;;23.80;99.90;;;;;;4933337;29;20020;-78
2023/09/17 09:23:35;;;;;;;4.05;2.63;;;23.90;99.90;;;;;;4947367;28;20031;-77
2023/09/17 09:26:01;;;;;;;10.57;2.50;;;24.00;99.90;;;;;;4933780;29;20020;-77
2023/09/17 09:28:33;;;;;;;5.43;2.78;;;24.10;99.50;;;;;;4944962;28;20031;-77
2023/09/17 09:30:59;;;;;;;8.85;2.67;;;24.10;98.60;;;;;;4934444;29;20020;-78
2023/09/17 09:33:26;;;;;;;5.95;2.47;;;24.20;97.90;;;;;;4934037;29;20047;-77
2023/09/17 09:35:54;;;;;;;8.60;2.35;;;24.30;97.70;;;;;;4936083;29;20102;-78
2023/09/17 09:38:20;;;;;;;15.25;2.70;;;24.40;97.70;;;;;;4932009;29;20039;-77
2023/09/17 09:40:51;;;;;;;7.15;2.22;;;24.40;97.50;;;;;;4940388;29;20015;-77
2023/09/17 09:43:30;;;;;;;6.00;2.30;;;24.50;97.40;;;;;;4935976;29;20023;-77
2023/09/17 09:46:06;;;;;;;4.85;2.45;;;24.60;97.00;;;;;;4937549;29;20028;-75
2023/09/17 09:48:36;;;;;;;7.03;2.15;;;24.60;97.20;;;;;;4927511;29;20035;-74
2023/09/17 09:51:02;;;;;;;5.18;2.15;;;24.70;97.10;;;;;;4924370;29;20556;-74
2023/09/17 09:53:34;;;;;;;7.65;2.70;;;24.80;97.10;;;;;;4929960;29;20019;-74
2023/09/17 09:56:04;;;;;;;5.10;1.90;;;24.80;97.10;;;;;;4929299;29;20087;-74
2023/09/17 09:58:29;;;;;;;5.88;2.33;;;24.90;96.90;;;;;;4928183;29;20024;-72
2023/09/17 10:01:02;;;;;;;6.78;2.45;;;25.00;97.10;;;;;;4945301;28;20087;-72
2023/09/17 10:03:28;;;;;;;11.02;2.88;;;25.10;96.80;;;;;;4930776;29;20020;-71
2023/09/17 10:06:05;;;;;;;7.07;2.28;;;25.20;96.70;;;;;;4930958;29;20050;-72
2023/09/17 10:08:31;;;;;;;4.85;2.28;;;25.30;96.50;;;;;;4927749;29;20023;-78
2023/09/17 10:11:05;;;;;;;7.35;2.38;;;25.30;96.20;;;;;;4932372;29;20031;-78
2023/09/17 10:13:34;;;;;;;4.22;1.65;;;25.40;95.50;;;;;;4925115;29;20079;-81
2023/09/17 10:16:02;;;;;;;7.85;2.15;;;25.40;95.40;;;;;;4921419;29;20024;-80
2023/09/17 10:18:32;;;;;;;6.00;2.17;;;25.50;95.50;;;;;;4928568;29;20035;-77
2023/09/17 10:20:59;;;;;;;7.10;2.15;;;25.50;95.00;;;;;;4937857;28;20553;-76
2023/09/17 10:23:27;;;;;;;5.60;2.45;;;25.60;94.70;;;;;;4924937;29;20099;-74
2023/09/17 10:25:58;;;;;;;6.15;2.80;;;25.60;95.20;;;;;;4928739;29;20027;-73
2023/09/17 10:28:25;;;;;;;4.53;2.00;;;25.60;95.00;;;;;;4936170;28;20055;-73
2023/09/17 10:30:51;;;;;;;3.28;1.60;;;25.60;95.20;;;;;;4929590;28;20119;-73
2023/09/17 10:33:21;;;;;;;4.50;1.77;;;25.70;95.10;;;;;;4918937;29;21155;-73
2023/09/17 10:35:48;;;;;;;4.57;1.85;;;25.70;95.10;;;;;;4943030;28;20140;-77
2023/09/17 10:38:18;;;;;;;6.40;2.70;;;25.80;94.70;;;;;;4934112;28;20042;-77
2023/09/17 10:40:43;;;;;;;6.97;2.30;;;25.90;94.30;;;;;;4941801;29;20494;-78
2023/09/17 10:43:11;;;;;;;6.13;1.67;;;25.90;94.00;;;;;;4935980;29;20035;-78
2023/09/17 10:45:39;;;;;;;7.47;1.90;;;26.00;93.90;;;;;;4935728;29;20050;-80
2023/09/17 10:48:08;;;;;;;4.85;1.88;;;26.00;93.90;;;;;;4940622;29;20034;-79
2023/09/17 10:50:40;;;;;;;5.75;2.10;;;26.10;94.10;;;;;;4938737;29;20102;-78
2023/09/17 10:53:06;;;;;;;5.50;1.93;;;26.10;94.00;;;;;;4942260;29;20024;-78
2023/09/17 10:55:38;;;;;;;7.15;2.35;;;26.10;93.90;;;;;;4951082;29;20104;-79
2023/09/17 10:58:20;;;;;;;6.00;1.92;;;26.20;93.40;;;;;;4947944;29;20034;-78
2023/09/17 11:00:47;;;;;;;6.47;1.90;;;26.30;93.10;;;;;;4945344;29;20019;-80
2023/09/17 11:03:19;;;;;;;5.90;1.98;;;26.30;93.10;;;;;;4966115;28;20035;-80
2023/09/17 11:05:45;;;;;;;8.23;2.13;;;26.30;93.10;;;;;;4944579;29;20039;-78
2023/09/17 11:08:12;;;;;;;4.75;1.73;;;26.40;93.50;;;;;;4946541;29;20519;-79
2023/09/17 11:10:41;;;;;;;3.83;2.17;;;26.40;93.10;;;;;;4963194;28;20138;-79
2023/09/17 11:13:13;;;;;;;5.88;2.05;;;26.40;92.90;;;;;;4943114;29;20070;-80
2023/09/17 11:15:39;;;;;;;8.48;2.10;;;26.40;92.80;;;;;;4945710;29;20023;-79
2023/09/17 11:18:07;;;;;;;4.70;1.40;;;26.70;91.90;;;;;;4947348;29;20038;-80
2023/09/17 11:20:33;;;;;;;2.72;1.70;;;26.70;91.60;;;;;;4945289;29;20051;-79
2023/09/17 11:23:03;;;;;;;5.10;2.00;;;26.80;91.50;;;;;;4936772;29;20055;-77
2023/09/17 11:25:40;;;;;;;7.75;2.42;;;26.90;91.20;;;;;;4950509;28;20039;-77
2023/09/17 11:28:15;;;;;;;4.10;1.70;;;27.00;90.70;;;;;;4933493;29;20054;-77
2023/09/17 11:30:56;;;;;;;6.78;2.17;;;27.10;90.50;;;;;;4932867;29;20049;-77
2023/09/17 11:33:23;;;;;;;4.50;2.03;;;27.20;89.40;;;;;;4939877;29;20074;-76
2023/09/17 11:36:01;;;;;;;4.93;2.08;;;27.30;89.90;;;;;;4936307;29;20024;-77
2023/09/17 11:38:36;;;;;;;5.15;1.98;;;27.30;89.40;;;;;;4944571;28;20028;-78
2023/09/17 11:41:06;;;;;;;3.00;1.60;;;27.40;88.80;;;;;;4937721;29;20023;-79
2023/09/17 11:43:42;;;;;;;5.28;2.00;;;27.40;89.40;;;;;;4941431;29;20031;-77
2023/09/17 11:46:08;;;;;;;6.18;1.77;;;27.50;89.30;;;;;;4953930;28;20111;-78
2023/09/17 11:48:36;;;;;;;4.55;1.90;;;27.40;88.60;;;;;;4941492;29;20039;-80
2023/09/17 11:51:22;;;;;;;4.90;1.52;;;27.50;88.40;;;;;;4937683;29;20479;-81
2023/09/17 11:53:59;;;;;;;6.55;2.05;;;27.50;87.70;;;;;;4943754;29;20034;-77
2023/09/17 11:56:32;;;;;;;5.38;2.20;;;27.50;87.10;;;;;;4943557;28;20035;-77
2023/09/17 11:59:16;;;;;;;4.25;1.60;;;27.60;87.00;;;;;;4937869;29;20059;-77
2023/09/17 12:01:45;;;;;;;4.57;1.65;;;27.70;86.80;;;;;;4942110;29;20103;-78
2023/09/17 12:04:11;;;;;;;5.72;2.22;;;27.80;86.30;;;;;;4933456;29;20039;-78
2023/09/17 12:06:48;;;;;;;7.95;1.85;;;27.80;86.20;;;;;;4933368;29;20040;-78
2023/09/17 12:09:23;;;;;;;4.55;1.30;;;27.90;85.70;;;;;;4925415;29;20027;-77
2023/09/17 12:11:50;;;;;;;3.65;1.80;;;27.90;85.20;;;;;;4933554;29;20159;-77
2023/09/17 12:14:16;;;;;;;2.78;1.88;;;28.00;84.90;;;;;;4944206;28;20075;-77
2023/09/17 12:16:50;;;;;;;7.05;2.03;;;28.00;84.60;;;;;;4929788;29;20038;-77
2023/09/17 12:19:20;;;;;;;5.25;2.00;;;28.00;85.00;;;;;;4930512;29;20082;-77
2023/09/17 12:21:53;;;;;;;2.10;1.38;;;28.00;85.00;;;;;;4936417;29;20088;-79
2023/09/17 12:24:35;;;;;;;6.30;1.95;;;28.00;85.00;;;;;;4942013;29;20039;-82
2023/09/17 12:27:24;;;;;;;6.18;2.22;;;28.00;85.10;;;;;;4941166;29;20028;-82
2023/09/17 12:29:54;;;;;;;6.38;1.77;;;28.00;84.90;;;;;;4957775;28;20100;-82
2023/09/17 12:32:24;;;;;;;5.30;2.35;;;28.00;85.10;;;;;;4930807;29;20847;-83
2023/09/17 12:34:59;;;;;;;6.03;2.17;;;28.00;83.60;;;;;;4950448;28;20026;-83
2023/09/17 12:37:34;;;;;;;3.88;1.80;;;28.00;83.10;;;;;;4951552;28;20035;-78
2023/09/17 12:40:07;;;;;;;5.07;2.15;;;28.00;83.60;;;;;;4936682;29;20086;-78
2023/09/17 12:42:41;;;;;;;5.47;1.90;;;28.10;83.50;;;;;;4937453;29;20094;-76
2023/09/17 12:45:08;;;;;;;6.32;1.70;;;28.20;83.90;;;;;;4936870;29;20078;-78
2023/09/17 12:47:34;;;;;;;5.78;2.20;;;28.20;83.80;;;;;;4947781;28;20035;-78
2023/09/17 12:50:02;;;;;;;4.03;2.25;;;28.20;83.50;;;;;;4934317;29;20032;-74
2023/09/17 12:52:28;;;;;;;5.38;2.20;;;28.20;83.50;;;;;;4926875;29;20595;-76
2023/09/17 12:55:18;;;;;;;3.28;1.70;;;28.20;83.60;;;;;;4930077;29;20040;-75
2023/09/17 12:57:53;;;;;;;6.38;2.97;;;28.20;83.50;;;;;;4928798;29;20082;-75